Needmore, Pennsylvania
Current Conditions -  °F | °C
As of 7:53 PM on Wednesday 22 Oct 2014 (Local Time) from KHGR Reporting Station
Overcast Overcast  
Wind Chill: 53°   Ceiling: 3200
Heat Index: 53°   Visibility: 10mi
Dew Point: 42°   Wind: 13mph
Humidity: 66%   Direction: 330°NNW
Pressure: 30"   Gusts: NA
Location:  39.85°N, 78.14°W
Report Text: KHGR 222353Z 33011KT 10SM OVC032 12/06 A3000 RMK AO2 SLP169 60000 T01170056 10139 20117 53007
Loading
Personal Weather Stations






























Interactive Weather Map
Tropical Storm Tracking
New forecast layout! Learn more

10-Day Weather Forecast

Advertisements
Track Severe Weather on mobile